Time;durP1;ratioP1;P1;durP2;ratioP2;P2;SDS_P1;SDS_P2;PMS_P1;PMS_P2;Temp;Humidity;BMP_temperature;BMP_pressure;BME280_temperature;BME280_humidity;BME280_pressure;Samples;Min_cycle;Max_cycle;Signal;HPM_P1;HPM_P2
2022/04/03 00:00:35;;;;;;;2.38;1.65;;;20.30;41.30;;;;;;5034606;28;20029;-71
2022/04/03 00:03:03;;;;;;;2.50;1.52;;;20.40;41.40;;;;;;5052168;28;20584;-73
2022/04/03 00:05:29;;;;;;;3.15;1.75;;;20.30;41.30;;;;;;5052263;28;20107;-72
2022/04/03 00:07:55;;;;;;;2.15;1.60;;;20.30;41.30;;;;;;5052263;28;20128;-72
2022/04/03 00:10:22;;;;;;;239.13;215.00;;;20.40;41.30;;;;;;5052245;28;20021;-72
2022/04/03 00:12:48;;;;;;;2.63;1.67;;;20.30;41.30;;;;;;5051904;28;20070;-72
2022/04/03 00:15:14;;;;;;;12.30;11.40;;;20.40;41.30;;;;;;5034250;28;20057;-72
2022/04/03 00:17:41;;;;;;;4.70;3.25;;;20.30;41.30;;;;;;5034289;28;20415;-71
2022/04/03 00:20:08;;;;;;;2.30;1.58;;;20.40;41.40;;;;;;5051967;28;20025;-72
2022/04/03 00:22:34;;;;;;;7.72;6.80;;;20.40;41.50;;;;;;5034239;28;20111;-72
2022/04/03 00:25:01;;;;;;;2.40;1.67;;;20.40;41.30;;;;;;5051786;28;20124;-72
2022/04/03 00:27:26;;;;;;;2.65;1.80;;;20.30;41.40;;;;;;5051892;28;20363;-74
2022/04/03 00:29:52;;;;;;;29.42;27.67;;;20.40;41.30;;;;;;5033974;28;20104;-71
2022/04/03 00:32:18;;;;;;;1.90;1.50;;;20.30;41.30;;;;;;5051751;28;20025;-72
2022/04/03 00:34:44;;;;;;;2.42;1.67;;;20.30;41.20;;;;;;5033772;28;20028;-71
2022/04/03 00:37:10;;;;;;;2.40;1.52;;;20.40;41.40;;;;;;5051666;28;20537;-72
2022/04/03 00:39:36;;;;;;;3.33;1.60;;;20.40;41.40;;;;;;5051827;28;20025;-73
2022/04/03 00:42:03;;;;;;;2.05;1.55;;;20.30;41.30;;;;;;5033709;28;20079;-72
2022/04/03 00:44:40;;;;;;;2.67;1.67;;;20.30;41.40;;;;;;5051996;28;20552;-72
2022/04/03 00:47:17;;;;;;;2.70;1.60;;;20.30;41.30;;;;;;5017137;28;20041;-72
2022/04/03 00:49:43;;;;;;;2.20;1.50;;;20.30;41.40;;;;;;5049378;28;20033;-72
2022/04/03 00:52:10;;;;;;;2.22;1.60;;;20.30;41.30;;;;;;5051154;28;20024;-72
2022/04/03 00:54:37;;;;;;;1.95;1.48;;;20.30;41.30;;;;;;5051437;28;20036;-73
2022/04/03 00:57:07;;;;;;;2.25;1.65;;;20.40;41.40;;;;;;5051423;28;20671;-72
2022/04/03 00:59:34;;;;;;;2.40;1.70;;;20.30;41.30;;;;;;5051826;28;20088;-72
2022/04/03 01:02:00;;;;;;;2.40;1.48;;;20.40;41.30;;;;;;5051002;28;20481;-73
2022/04/03 01:04:26;;;;;;;2.35;1.70;;;20.30;41.20;;;;;;5051216;28;20044;-72
2022/04/03 01:06:52;;;;;;;2.13;1.50;;;20.40;41.40;;;;;;5051425;28;20021;-73
2022/04/03 01:09:17;;;;;;;2.95;1.67;;;20.30;41.50;;;;;;5051199;28;20381;-72
2022/04/03 01:11:45;;;;;;;2.13;1.58;;;20.30;41.30;;;;;;5051084;28;20021;-73
2022/04/03 01:14:11;;;;;;;3.08;1.58;;;20.30;41.20;;;;;;5050955;28;20025;-72
2022/04/03 01:16:37;;;;;;;2.40;1.50;;;20.30;41.20;;;;;;5051054;28;20044;-72
2022/04/03 01:19:03;;;;;;;2.63;1.50;;;20.30;41.30;;;;;;5051261;28;20025;-73
2022/04/03 01:21:29;;;;;;;3.15;1.40;;;20.30;41.30;;;;;;5051021;28;20032;-73
2022/04/03 01:23:55;;;;;;;2.10;1.60;;;20.30;41.20;;;;;;5050702;28;20021;-73
2022/04/03 01:26:23;;;;;;;2.90;1.50;;;20.30;41.30;;;;;;5050869;28;20037;-72
2022/04/03 01:28:49;;;;;;;2.78;1.60;;;20.30;41.40;;;;;;5051331;28;20098;-72
2022/04/03 01:31:15;;;;;;;2.72;1.60;;;20.30;41.30;;;;;;5051527;28;20462;-72
2022/04/03 01:33:40;;;;;;;1.63;1.30;;;20.30;41.40;;;;;;5050753;28;20021;-72
2022/04/03 01:36:06;;;;;;;2.25;1.40;;;20.30;41.50;;;;;;5049629;28;20032;-72
2022/04/03 01:38:32;;;;;;;2.42;1.70;;;20.30;41.40;;;;;;5051095;28;20405;-72
2022/04/03 01:40:57;;;;;;;2.22;1.50;;;20.30;41.30;;;;;;5032937;28;20112;-72
2022/04/03 01:43:23;;;;;;;2.20;1.40;;;20.30;41.40;;;;;;5050735;28;20029;-72
2022/04/03 01:45:49;;;;;;;2.10;1.38;;;20.30;41.50;;;;;;5050482;28;20029;-73
2022/04/03 01:48:14;;;;;;;2.97;1.60;;;20.30;41.50;;;;;;5050871;28;20040;-72
2022/04/03 01:50:40;;;;;;;1.92;1.48;;;20.30;41.60;;;;;;5049752;28;20059;-73
2022/04/03 01:53:06;;;;;;;2.22;1.60;;;20.30;41.30;;;;;;5050542;28;20021;-72
2022/04/03 01:55:32;;;;;;;2.20;1.27;;;20.30;41.50;;;;;;5050584;28;20117;-73
2022/04/03 01:57:57;;;;;;;58.22;54.60;;;20.30;41.40;;;;;;5016636;28;20034;-72
2022/04/03 02:00:23;;;;;;;2.50;1.52;;;20.30;41.40;;;;;;5052504;28;20043;-72
2022/04/03 02:02:52;;;;;;;2.72;1.55;;;20.30;41.50;;;;;;5054367;28;20120;-72
2022/04/03 02:05:18;;;;;;;2.58;1.48;;;20.30;41.30;;;;;;5054405;28;20480;-72
2022/04/03 02:07:43;;;;;;;1.90;1.40;;;20.30;41.40;;;;;;5053350;28;20052;-72
2022/04/03 02:10:10;;;;;;;50.15;47.10;;;20.30;41.30;;;;;;5036713;28;20385;-72
2022/04/03 02:12:36;;;;;;;3.00;1.70;;;20.30;41.40;;;;;;5053942;28;20032;-73
2022/04/03 02:15:05;;;;;;;3.35;1.60;;;20.30;41.60;;;;;;5054321;28;20076;-72
2022/04/03 02:17:31;;;;;;;2.35;1.40;;;20.30;41.30;;;;;;5054608;28;20025;-73
2022/04/03 02:19:57;;;;;;;2.50;1.60;;;20.30;41.50;;;;;;5036433;28;20036;-72
2022/04/03 02:22:23;;;;;;;1.92;1.60;;;20.30;41.30;;;;;;5036119;28;20485;-73
2022/04/03 02:24:48;;;;;;;1.58;1.20;;;20.30;41.30;;;;;;5054038;28;20025;-72
2022/04/03 02:27:14;;;;;;;2.50;1.65;;;20.30;41.40;;;;;;5054193;28;20025;-72
2022/04/03 02:29:40;;;;;;;1.90;1.45;;;20.30;41.20;;;;;;5036321;28;20040;-73
2022/04/03 02:32:06;;;;;;;2.15;1.40;;;20.30;41.20;;;;;;5053685;28;20331;-73
2022/04/03 02:34:32;;;;;;;2.40;1.45;;;20.30;41.20;;;;;;5054070;28;20064;-72
2022/04/03 02:36:57;;;;;;;2.58;1.45;;;20.30;41.20;;;;;;5052788;28;20426;-72
2022/04/03 02:39:23;;;;;;;2.58;1.42;;;20.30;41.30;;;;;;5036342;28;20051;-73
2022/04/03 02:41:49;;;;;;;2.70;1.42;;;20.30;41.40;;;;;;5052489;28;20033;-72
2022/04/03 02:44:16;;;;;;;2.13;1.40;;;20.30;41.50;;;;;;5035848;28;20057;-72
2022/04/03 02:46:42;;;;;;;2.03;1.40;;;20.30;41.30;;;;;;5053811;28;20033;-73
2022/04/03 02:49:08;;;;;;;3.20;1.73;;;20.30;41.50;;;;;;5036046;28;20036;-72
2022/04/03 02:51:38;;;;;;;1.70;1.40;;;20.30;41.60;;;;;;5052438;28;20036;-72
2022/04/03 02:54:04;;;;;;;2.20;1.38;;;20.30;41.60;;;;;;5053395;28;20052;-73
2022/04/03 02:56:30;;;;;;;2.55;1.50;;;20.30;41.60;;;;;;5053530;28;20057;-72
2022/04/03 02:58:56;;;;;;;2.83;1.60;;;20.30;41.50;;;;;;5035908;28;20071;-73
2022/04/03 03:01:22;;;;;;;2.33;1.35;;;20.30;41.40;;;;;;5053481;28;20090;-73
2022/04/03 03:03:48;;;;;;;8.98;8.35;;;20.30;41.50;;;;;;5053198;28;20029;-72
2022/04/03 03:06:14;;;;;;;2.60;1.55;;;20.30;41.50;;;;;;5053211;28;20039;-73
2022/04/03 03:08:41;;;;;;;2.70;1.90;;;20.30;41.40;;;;;;5053430;28;20035;-72
2022/04/03 03:11:07;;;;;;;1.88;1.33;;;20.30;41.50;;;;;;5052400;28;20025;-73
2022/04/03 03:13:33;;;;;;;2.05;1.50;;;20.20;41.30;;;;;;5053001;28;20025;-72
2022/04/03 03:15:59;;;;;;;2.40;1.50;;;20.30;41.40;;;;;;5051995;28;20031;-72
2022/04/03 03:18:25;;;;;;;3.03;1.60;;;20.20;41.30;;;;;;5053425;28;20029;-72
2022/04/03 03:20:51;;;;;;;10.60;9.90;;;20.30;41.30;;;;;;5053160;28;20037;-72
2022/04/03 03:23:17;;;;;;;2.08;1.48;;;20.30;41.20;;;;;;5052819;28;20025;-72
2022/04/03 03:25:45;;;;;;;61.50;58.00;;;20.20;41.10;;;;;;5035032;28;20036;-73
2022/04/03 03:28:14;;;;;;;1.80;1.38;;;20.20;41.30;;;;;;5053497;28;20021;-72
2022/04/03 03:30:40;;;;;;;2.05;1.50;;;20.30;41.50;;;;;;5053248;28;20032;-72
2022/04/03 03:33:06;;;;;;;1.85;1.40;;;20.20;41.30;;;;;;5052742;28;20017;-72
2022/04/03 03:35:33;;;;;;;2.50;1.35;;;20.20;41.20;;;;;;5052634;28;20374;-73
2022/04/03 03:38:00;;;;;;;1.98;1.60;;;20.20;41.30;;;;;;5018378;28;20033;-73
2022/04/03 03:40:27;;;;;;;2.53;1.48;;;20.20;41.20;;;;;;5035039;28;20472;-73
2022/04/03 03:42:53;;;;;;;10.65;9.93;;;20.20;41.30;;;;;;5052431;28;20037;-72
2022/04/03 03:45:18;;;;;;;2.72;1.45;;;20.20;41.20;;;;;;5052833;28;20392;-73
2022/04/03 03:47:46;;;;;;;2.03;1.45;;;20.30;41.30;;;;;;5051504;28;20374;-72
2022/04/03 03:50:13;;;;;;;1.80;1.30;;;20.20;41.20;;;;;;5034873;28;20033;-72
2022/04/03 03:52:41;;;;;;;3.60;1.20;;;20.20;41.30;;;;;;5050820;28;20155;-73
2022/04/03 03:55:08;;;;;;;84.40;78.07;;;20.20;41.30;;;;;;5052375;28;20025;-72
2022/04/03 03:57:34;;;;;;;1.83;1.30;;;20.20;41.30;;;;;;5052451;28;20029;-72
2022/04/03 04:00:00;;;;;;;1.65;1.30;;;20.20;41.20;;;;;;5052548;28;20036;-72
2022/04/03 04:02:25;;;;;;;2.83;1.58;;;20.20;41.20;;;;;;5050793;28;20074;-73
2022/04/03 04:04:51;;;;;;;2.00;1.48;;;20.20;41.40;;;;;;5052149;28;20041;-73
2022/04/03 04:07:17;;;;;;;18.27;16.27;;;20.20;41.40;;;;;;5052188;28;20029;-72
2022/04/03 04:09:42;;;;;;;2.47;1.60;;;20.30;41.50;;;;;;5052332;28;20367;-72
2022/04/03 04:12:09;;;;;;;1.88;1.38;;;20.30;41.50;;;;;;5034116;28;20051;-73
2022/04/03 04:14:36;;;;;;;1.83;1.33;;;20.20;41.50;;;;;;5052072;28;20505;-72
2022/04/03 04:17:01;;;;;;;2.15;1.33;;;20.20;41.40;;;;;;5052137;28;20025;-72
2022/04/03 04:19:28;;;;;;;2.53;1.40;;;20.20;41.50;;;;;;5052078;28;20029;-72
2022/04/03 04:21:54;;;;;;;1.85;1.30;;;20.20;41.80;;;;;;5051890;28;20478;-73
2022/04/03 04:24:20;;;;;;;1.92;1.30;;;20.20;41.50;;;;;;5051942;28;20032;-72
2022/04/03 04:26:45;;;;;;;2.15;1.50;;;20.20;41.40;;;;;;5051884;28;20025;-72
2022/04/03 04:29:11;;;;;;;2.08;1.20;;;20.20;41.40;;;;;;5051919;28;20021;-72
2022/04/03 04:31:37;;;;;;;2.47;1.50;;;20.20;41.40;;;;;;5051908;28;20063;-72
2022/04/03 04:34:03;;;;;;;1.52;1.23;;;20.20;41.50;;;;;;5050377;28;20045;-72
2022/04/03 04:36:29;;;;;;;2.72;1.42;;;20.20;41.40;;;;;;5051574;28;20040;-72
2022/04/03 04:38:56;;;;;;;1.92;1.50;;;20.20;41.50;;;;;;5033922;28;20033;-72
2022/04/03 04:41:21;;;;;;;2.63;2.20;;;20.20;41.50;;;;;;5051771;28;20104;-73
2022/04/03 04:43:47;;;;;;;2.00;1.33;;;20.20;41.40;;;;;;5051462;28;20579;-73
2022/04/03 04:46:13;;;;;;;168.48;157.98;;;20.20;41.30;;;;;;5051368;28;20031;-71
2022/04/03 04:48:39;;;;;;;2.45;1.52;;;20.20;41.50;;;;;;5033858;28;20063;-72
2022/04/03 04:51:05;;;;;;;2.97;1.48;;;20.20;41.30;;;;;;5051239;28;20558;-72
2022/04/03 04:53:30;;;;;;;2.35;1.50;;;20.20;41.30;;;;;;5051233;28;20024;-72
2022/04/03 04:55:56;;;;;;;2.00;1.48;;;20.20;41.40;;;;;;5033422;28;20028;-72
2022/04/03 04:58:22;;;;;;;2.25;1.40;;;20.20;41.30;;;;;;5051538;28;20036;-71
2022/04/03 05:00:47;;;;;;;23.33;21.83;;;20.20;41.30;;;;;;5051530;28;20032;-72
2022/04/03 05:03:13;;;;;;;1.67;1.35;;;20.20;41.30;;;;;;5051098;28;20036;-72
2022/04/03 05:05:40;;;;;;;1.95;1.48;;;20.20;41.30;;;;;;5051465;28;20068;-72
2022/04/03 05:08:06;;;;;;;24.02;22.58;;;20.20;41.30;;;;;;5051214;28;20115;-72
2022/04/03 05:10:32;;;;;;;2.45;1.42;;;20.20;41.40;;;;;;5051223;28;20397;-72
2022/04/03 05:12:59;;;;;;;2.15;1.40;;;20.20;41.30;;;;;;5050820;28;20027;-71
2022/04/03 05:15:27;;;;;;;3.78;3.17;;;20.20;41.40;;;;;;5049819;28;20027;-72
2022/04/03 05:17:53;;;;;;;1.90;1.45;;;20.20;41.30;;;;;;5033791;28;20028;-72
2022/04/03 05:20:19;;;;;;;3.05;1.30;;;20.20;41.40;;;;;;5033381;28;20056;-72
2022/04/03 05:22:45;;;;;;;2.90;1.65;;;20.20;41.40;;;;;;5050738;28;20033;-71
2022/04/03 05:25:11;;;;;;;2.47;1.65;;;20.20;41.40;;;;;;5050961;28;20029;-72
2022/04/03 05:27:39;;;;;;;2.15;1.33;;;20.20;41.40;;;;;;5051010;28;20108;-72
2022/04/03 05:30:05;;;;;;;2.67;1.73;;;20.20;41.40;;;;;;5051020;28;20027;-72
2022/04/03 05:32:32;;;;;;;1.95;1.50;;;20.20;41.40;;;;;;5050681;28;20028;-72
2022/04/03 05:34:59;;;;;;;2.40;1.40;;;20.20;41.30;;;;;;5052197;28;20425;-72
2022/04/03 05:37:25;;;;;;;2.97;1.48;;;20.20;41.40;;;;;;5055209;28;20436;-72
2022/04/03 05:39:51;;;;;;;2.47;1.63;;;20.20;41.40;;;;;;5037284;28;20056;-72
2022/04/03 05:42:21;;;;;;;18.65;17.45;;;20.20;41.30;;;;;;5054730;28;20032;-72
2022/04/03 05:44:48;;;;;;;2.38;1.33;;;20.20;41.50;;;;;;5055159;28;20025;-72
2022/04/03 05:47:17;;;;;;;2.30;1.50;;;20.20;41.40;;;;;;5053511;28;20481;-72
2022/04/03 05:49:44;;;;;;;2.17;1.48;;;20.20;41.40;;;;;;5053969;28;20720;-72
2022/04/03 05:52:10;;;;;;;5.32;4.22;;;20.20;41.40;;;;;;5054576;28;20028;-72
2022/04/03 05:54:36;;;;;;;1.92;1.48;;;20.20;41.30;;;;;;5020712;28;20029;-72
2022/04/03 05:57:01;;;;;;;2.60;1.60;;;20.20;41.30;;;;;;5054749;28;20037;-72
2022/04/03 05:59:27;;;;;;;2.60;1.58;;;20.20;41.50;;;;;;5036907;28;20082;-72
2022/04/03 06:01:53;;;;;;;2.28;1.55;;;20.20;41.40;;;;;;5054500;28;20033;-72
2022/04/03 06:04:18;;;;;;;2.65;1.73;;;20.20;41.40;;;;;;5036733;28;20068;-72
2022/04/03 06:06:44;;;;;;;2.05;1.60;;;20.20;41.40;;;;;;5036694;28;20432;-72
2022/04/03 06:09:10;;;;;;;4.57;3.83;;;20.20;41.40;;;;;;5054472;28;20100;-72
2022/04/03 06:11:36;;;;;;;2.58;1.60;;;20.20;41.30;;;;;;5054744;28;20541;-72
2022/04/03 06:14:02;;;;;;;3.05;2.08;;;20.20;41.30;;;;;;5054052;28;20064;-72
2022/04/03 06:16:28;;;;;;;2.85;1.80;;;20.20;41.20;;;;;;5036402;28;20071;-72
2022/04/03 06:18:54;;;;;;;23.60;22.02;;;20.20;41.10;;;;;;5054365;28;20025;-72
2022/04/03 06:21:20;;;;;;;1.92;1.40;;;20.20;41.20;;;;;;5036666;28;20037;-71
2022/04/03 06:23:45;;;;;;;2.70;1.60;;;20.20;41.20;;;;;;5036326;28;20032;-72
2022/04/03 06:26:12;;;;;;;2.60;1.67;;;20.20;41.30;;;;;;5054022;28;20040;-72
2022/04/03 06:28:38;;;;;;;2.33;1.55;;;20.20;41.20;;;;;;5036329;28;20025;-72
2022/04/03 06:31:04;;;;;;;13.68;12.73;;;20.20;41.30;;;;;;5054040;28;20021;-72
2022/04/03 06:33:30;;;;;;;2.88;2.35;;;20.20;41.30;;;;;;5053812;28;20025;-72
2022/04/03 06:35:55;;;;;;;2.28;1.77;;;20.20;41.20;;;;;;5036448;28;20021;-72
2022/04/03 06:38:21;;;;;;;2.35;1.55;;;20.20;41.30;;;;;;5053064;28;20031;-73
2022/04/03 06:40:55;;;;;;;45.35;42.60;;;20.30;41.30;;;;;;5052893;28;20331;-72
2022/04/03 06:43:22;;;;;;;2.20;1.75;;;20.30;41.10;;;;;;5053709;28;20036;-72
2022/04/03 06:45:49;;;;;;;2.47;1.90;;;20.30;41.20;;;;;;5053000;28;20390;-73
2022/04/03 06:48:15;;;;;;;3.55;2.00;;;20.30;41.10;;;;;;5052026;28;20112;-72
2022/04/03 06:50:41;;;;;;;3.33;1.75;;;20.30;41.00;;;;;;5052685;28;20114;-72
2022/04/03 06:53:07;;;;;;;2.97;2.00;;;20.30;41.00;;;;;;5035688;28;20113;-73
2022/04/03 06:55:33;;;;;;;2.13;1.70;;;20.40;40.90;;;;;;5053608;28;20108;-73
2022/04/03 06:57:59;;;;;;;2.35;1.67;;;20.30;40.90;;;;;;5053614;28;20033;-72
2022/04/03 07:00:25;;;;;;;39.40;36.88;;;20.30;40.90;;;;;;5052336;28;20108;-72
2022/04/03 07:02:51;;;;;;;2.80;1.90;;;20.30;40.80;;;;;;5053165;28;20389;-73
2022/04/03 07:05:17;;;;;;;2.80;1.90;;;20.30;40.80;;;;;;5053411;28;20037;-73
2022/04/03 07:07:43;;;;;;;2.95;1.75;;;20.30;40.80;;;;;;5053611;28;20091;-73
2022/04/03 07:10:09;;;;;;;3.10;1.83;;;20.30;40.80;;;;;;5053434;28;20470;-73
2022/04/03 07:12:35;;;;;;;3.35;1.85;;;20.30;40.90;;;;;;5052885;28;20024;-72
2022/04/03 07:15:03;;;;;;;3.33;2.00;;;20.30;40.80;;;;;;5035534;28;20029;-72
2022/04/03 07:17:28;;;;;;;3.88;2.05;;;20.30;40.90;;;;;;5052077;28;20025;-72
2022/04/03 07:19:54;;;;;;;2.72;1.95;;;20.40;40.90;;;;;;5035348;28;20074;-72
2022/04/03 07:22:20;;;;;;;3.83;2.20;;;20.30;40.80;;;;;;5052881;28;20049;-73
2022/04/03 07:24:46;;;;;;;4.55;2.40;;;20.40;40.90;;;;;;5019021;28;20519;-72
2022/04/03 07:27:11;;;;;;;3.75;2.10;;;20.30;40.80;;;;;;5053086;28;20497;-72
2022/04/03 07:29:37;;;;;;;26.23;23.63;;;20.30;40.90;;;;;;5052941;28;20093;-73
2022/04/03 07:32:03;;;;;;;3.08;2.00;;;20.30;40.90;;;;;;5034927;28;20029;-72
2022/04/03 07:34:29;;;;;;;2.53;1.80;;;20.30;40.90;;;;;;5052949;28;20389;-73
2022/04/03 07:36:56;;;;;;;3.53;1.98;;;20.30;40.90;;;;;;5035603;28;20021;-72
2022/04/03 07:39:23;;;;;;;2.67;1.75;;;20.30;40.90;;;;;;5035235;28;20374;-73
2022/04/03 07:41:49;;;;;;;6.68;5.47;;;20.30;40.90;;;;;;5034975;28;20032;-72
2022/04/03 07:44:15;;;;;;;2.95;2.05;;;20.30;40.90;;;;;;5051277;28;20029;-73
2022/04/03 07:46:40;;;;;;;30.25;28.45;;;20.30;40.90;;;;;;5052702;28;20032;-72
2022/04/03 07:49:06;;;;;;;2.97;2.10;;;20.30;40.90;;;;;;5034963;28;20033;-72
2022/04/03 07:51:32;;;;;;;4.63;2.33;;;20.30;40.90;;;;;;5051323;28;20407;-72
2022/04/03 07:53:58;;;;;;;3.92;2.20;;;20.30;40.90;;;;;;5034616;28;20466;-72
2022/04/03 07:56:24;;;;;;;3.53;2.22;;;20.30;40.80;;;;;;5052322;28;20115;-73
2022/04/03 07:58:49;;;;;;;3.28;2.28;;;20.30;40.90;;;;;;5051948;28;20037;-72
2022/04/03 08:01:15;;;;;;;69.68;64.68;;;20.40;40.90;;;;;;5052512;28;20021;-72
2022/04/03 08:03:41;;;;;;;3.30;2.00;;;20.30;40.90;;;;;;5034187;28;20032;-72
2022/04/03 08:06:07;;;;;;;100.60;94.25;;;20.30;41.00;;;;;;5051269;28;20025;-72
2022/04/03 08:08:32;;;;;;;3.22;1.95;;;20.30;41.00;;;;;;5051045;28;20091;-72
2022/04/03 08:10:58;;;;;;;3.50;2.60;;;20.30;41.00;;;;;;5052248;28;20032;-72
2022/04/03 08:13:24;;;;;;;44.60;41.95;;;20.30;41.00;;;;;;5050864;28;20079;-72
2022/04/03 08:15:50;;;;;;;5.03;4.53;;;20.30;41.00;;;;;;5034152;28;20062;-72
2022/04/03 08:18:16;;;;;;;4.07;2.20;;;20.30;41.00;;;;;;5050977;28;20037;-73
2022/04/03 08:20:43;;;;;;;3.75;2.22;;;20.30;41.00;;;;;;5052106;28;20044;-72
2022/04/03 08:23:09;;;;;;;3.83;3.00;;;20.30;41.10;;;;;;5051721;28;20036;-73
2022/04/03 08:25:36;;;;;;;3.92;2.13;;;20.30;41.10;;;;;;5033939;28;20393;-72
2022/04/03 08:28:02;;;;;;;20.90;19.08;;;20.30;41.10;;;;;;5034751;28;20033;-73
2022/04/03 08:30:29;;;;;;;3.40;2.20;;;20.30;41.10;;;;;;5050563;28;20036;-73
2022/04/03 08:32:55;;;;;;;56.97;53.53;;;20.30;41.00;;;;;;5051658;28;20100;-73
2022/04/03 08:35:24;;;;;;;3.15;2.28;;;20.30;41.00;;;;;;5051657;28;20025;-73
2022/04/03 08:37:50;;;;;;;3.90;2.25;;;20.30;41.20;;;;;;5034318;28;20025;-73
2022/04/03 08:40:18;;;;;;;6.50;5.90;;;20.30;41.00;;;;;;5033988;28;20114;-73
2022/04/03 08:42:44;;;;;;;3.58;2.10;;;20.40;41.00;;;;;;5050375;28;20025;-73
2022/04/03 08:45:11;;;;;;;2.90;1.90;;;20.30;40.90;;;;;;5050246;28;20029;-73
2022/04/03 08:47:48;;;;;;;4.93;2.15;;;20.40;40.90;;;;;;5051649;28;20056;-73
2022/04/03 08:50:15;;;;;;;3.10;2.03;;;20.40;41.20;;;;;;5051646;28;20021;-73
2022/04/03 08:52:50;;;;;;;4.47;2.33;;;20.40;40.80;;;;;;5051257;28;20180;-73
2022/04/03 08:55:17;;;;;;;3.83;2.25;;;20.50;40.80;;;;;;5051335;28;20432;-73
2022/04/03 08:57:43;;;;;;;3.42;2.20;;;20.50;40.70;;;;;;5051554;28;20446;-73
2022/04/03 09:00:10;;;;;;;3.42;2.10;;;20.50;40.60;;;;;;5033539;28;20382;-73
2022/04/03 09:02:36;;;;;;;3.30;2.17;;;20.50;40.60;;;;;;5051078;28;20033;-73
2022/04/03 09:05:05;;;;;;;3.88;2.30;;;20.50;40.50;;;;;;5050120;28;20390;-73
2022/04/03 09:07:31;;;;;;;4.30;2.30;;;20.60;40.50;;;;;;5051780;28;20033;-73
2022/04/03 09:09:58;;;;;;;3.75;2.33;;;20.60;40.50;;;;;;5050544;28;20109;-73
2022/04/03 09:12:24;;;;;;;4.30;2.97;;;20.60;40.60;;;;;;5050961;28;20297;-73
2022/04/03 09:14:55;;;;;;;3.15;2.17;;;20.60;40.60;;;;;;5051302;28;20481;-73
2022/04/03 09:17:38;;;;;;;3.85;2.13;;;20.60;40.60;;;;;;5017082;28;20111;-73
2022/04/03 09:20:06;;;;;;;3.63;2.10;;;20.50;40.60;;;;;;5051351;28;20392;-73
2022/04/03 09:22:35;;;;;;;4.28;2.38;;;20.50;40.80;;;;;;5050885;28;20067;-73
2022/04/03 09:25:06;;;;;;;2.85;2.00;;;20.50;40.80;;;;;;5016889;28;20038;-73
2022/04/03 09:27:44;;;;;;;3.50;2.10;;;20.50;40.80;;;;;;5051169;28;20558;-73
2022/04/03 09:30:12;;;;;;;2.83;1.83;;;20.50;40.80;;;;;;5051123;28;20449;-73
2022/04/03 09:32:51;;;;;;;2.53;2.00;;;20.50;40.90;;;;;;5050690;28;20025;-73
2022/04/03 09:35:19;;;;;;;2.60;1.90;;;20.50;40.90;;;;;;5050990;28;20033;-73
2022/04/03 09:38:07;;;;;;;3.22;2.20;;;20.50;40.90;;;;;;5051051;28;20063;-72
2022/04/03 09:40:34;;;;;;;7.78;7.07;;;20.50;40.90;;;;;;5050961;28;20029;-73
2022/04/03 09:43:27;;;;;;;3.47;2.10;;;20.50;40.90;;;;;;5033198;28;20434;-72
2022/04/03 09:45:55;;;;;;;3.20;2.13;;;20.50;40.90;;;;;;5050665;28;20044;-73
2022/04/03 09:48:31;;;;;;;3.50;2.28;;;20.50;41.00;;;;;;5050833;28;20834;-73
2022/04/03 09:51:09;;;;;;;3.55;2.00;;;20.50;40.90;;;;;;5050721;28;20452;-73
2022/04/03 09:53:52;;;;;;;3.95;2.33;;;20.50;41.00;;;;;;5050626;28;20079;-72
2022/04/03 09:56:27;;;;;;;3.25;2.28;;;20.50;41.00;;;;;;5049546;28;20029;-73
2022/04/03 09:58:53;;;;;;;3.65;2.00;;;20.50;41.00;;;;;;5016432;28;20442;-73
2022/04/03 10:01:28;;;;;;;3.28;2.10;;;20.50;41.00;;;;;;5033215;28;20025;-73
2022/04/03 10:03:55;;;;;;;2.92;1.88;;;20.50;41.00;;;;;;5050483;28;20040;-72
2022/04/03 10:06:23;;;;;;;3.97;2.45;;;20.50;41.00;;;;;;5032693;28;20103;-73
2022/04/03 10:08:50;;;;;;;3.38;2.10;;;20.50;41.10;;;;;;5050848;28;20032;-72
2022/04/03 10:11:16;;;;;;;7.35;5.60;;;20.50;41.00;;;;;;5050806;28;20025;-73
2022/04/03 10:13:43;;;;;;;3.42;2.20;;;20.50;40.90;;;;;;5032507;28;20500;-73
2022/04/03 10:16:10;;;;;;;2.80;1.95;;;20.50;41.00;;;;;;5032505;28;20402;-72
2022/04/03 10:18:37;;;;;;;3.88;2.25;;;20.50;41.00;;;;;;5049432;28;20040;-73
2022/04/03 10:21:04;;;;;;;4.45;2.40;;;20.50;41.00;;;;;;5050634;28;20027;-73
2022/04/03 10:23:31;;;;;;;3.03;2.30;;;20.50;40.90;;;;;;5036295;28;20090;-73
2022/04/03 10:25:57;;;;;;;3.83;2.30;;;20.50;41.00;;;;;;5054178;28;20029;-73
2022/04/03 10:28:23;;;;;;;4.15;2.35;;;20.50;41.00;;;;;;5036687;28;20048;-73
2022/04/03 10:30:59;;;;;;;3.10;1.92;;;20.50;41.00;;;;;;5054094;28;20112;-72
2022/04/03 10:33:25;;;;;;;3.80;2.30;;;20.50;41.00;;;;;;5054037;28;20108;-73
2022/04/03 10:36:06;;;;;;;3.22;2.38;;;20.50;41.10;;;;;;5053972;28;20452;-73
2022/04/03 10:38:42;;;;;;;4.22;2.28;;;20.50;41.10;;;;;;5054085;28;20036;-73
2022/04/03 10:41:25;;;;;;;3.40;2.40;;;20.50;41.10;;;;;;5019540;28;20040;-73
2022/04/03 10:44:19;;;;;;;4.43;2.40;;;20.50;41.10;;;;;;5053741;28;20056;-73
2022/04/03 10:47:04;;;;;;;2.80;2.10;;;20.40;41.00;;;;;;5035822;28;20033;-73
2022/04/03 10:49:48;;;;;;;3.95;2.20;;;20.40;41.00;;;;;;5053831;28;20033;-73
2022/04/03 10:52:26;;;;;;;3.70;2.20;;;20.40;41.10;;;;;;5053576;28;20072;-73
2022/04/03 10:54:54;;;;;;;3.55;2.20;;;20.40;41.10;;;;;;5053538;28;20037;-72
2022/04/03 10:57:36;;;;;;;2.70;1.98;;;20.50;41.10;;;;;;5036068;28;20406;-72
2022/04/03 11:00:14;;;;;;;5.45;5.05;;;20.50;41.00;;;;;;5019689;28;20040;-72
2022/04/03 11:02:40;;;;;;;3.42;2.17;;;20.50;41.00;;;;;;5035554;28;20094;-72
2022/04/03 11:05:27;;;;;;;3.88;2.53;;;20.50;41.00;;;;;;5035557;28;20493;-72
2022/04/03 11:07:59;;;;;;;3.22;2.20;;;20.50;41.10;;;;;;5053481;28;20025;-72
2022/04/03 11:10:57;;;;;;;2.72;2.10;;;20.50;41.00;;;;;;5053376;28;20104;-72
2022/04/03 11:13:37;;;;;;;3.88;2.30;;;20.50;41.10;;;;;;5053197;28;20056;-72
2022/04/03 11:16:09;;;;;;;3.15;2.20;;;20.40;41.10;;;;;;5053150;28;20024;-73
2022/04/03 11:18:45;;;;;;;2.88;2.08;;;20.40;41.10;;;;;;5053360;28;20035;-73
2022/04/03 11:21:37;;;;;;;2.90;1.90;;;20.50;41.10;;;;;;5053198;28;20045;-73
2022/04/03 11:24:10;;;;;;;3.67;2.38;;;20.50;41.10;;;;;;5050195;28;20037;-73
2022/04/03 11:26:38;;;;;;;3.17;2.25;;;20.50;41.00;;;;;;5052952;28;20083;-73
2022/04/03 11:29:05;;;;;;;2.72;2.10;;;20.50;41.00;;;;;;5035355;28;20056;-72
2022/04/03 11:31:32;;;;;;;3.50;2.30;;;20.50;41.10;;;;;;5051864;28;20021;-73
2022/04/03 11:33:58;;;;;;;3.53;2.42;;;20.50;41.00;;;;;;5050651;28;20076;-72
2022/04/03 11:36:30;;;;;;;3.90;2.67;;;20.50;41.00;;;;;;5052733;28;20060;-72
2022/04/03 11:39:00;;;;;;;3.60;2.40;;;20.50;41.00;;;;;;5051743;28;20111;-72
2022/04/03 11:41:27;;;;;;;13.05;12.13;;;20.50;41.00;;;;;;5051471;28;20028;-72
2022/04/03 11:44:04;;;;;;;3.45;2.17;;;20.50;41.00;;;;;;5034697;28;20032;-72
2022/04/03 11:46:34;;;;;;;2.70;1.92;;;20.50;41.00;;;;;;5078568;23;20050;-83
2022/04/03 11:49:00;;;;;;;3.25;2.10;;;20.50;41.10;;;;;;5029568;28;20022;-83
2022/04/03 11:51:26;;;;;;;2.85;1.88;;;20.50;41.00;;;;;;4996819;28;20389;-83
2022/04/03 11:54:00;;;;;;;3.40;2.30;;;20.50;41.10;;;;;;4996060;28;20057;-84
2022/04/03 11:56:31;;;;;;;4.05;2.40;;;20.50;41.10;;;;;;4979304;28;20038;-83
2022/04/03 11:58:58;;;;;;;3.13;2.30;;;20.50;41.20;;;;;;4979505;28;20041;-84
2022/04/03 12:01:34;;;;;;;4.20;2.70;;;20.50;41.10;;;;;;5012902;28;20033;-83
2022/04/03 12:04:06;;;;;;;4.47;2.50;;;20.40;41.10;;;;;;5012902;28;20121;-82
2022/04/03 12:06:36;;;;;;;3.00;2.20;;;20.50;41.10;;;;;;5012915;28;20057;-82
2022/04/03 12:09:13;;;;;;;4.28;2.30;;;20.40;41.10;;;;;;5013248;28;20398;-83
2022/04/03 12:11:51;;;;;;;3.25;2.17;;;20.40;41.10;;;;;;4995524;28;20108;-84
2022/04/03 12:14:30;;;;;;;3.83;2.35;;;20.40;41.10;;;;;;4995735;28;20026;-83
2022/04/03 12:17:05;;;;;;;4.15;2.50;;;20.50;41.20;;;;;;5013360;28;20026;-83
2022/04/03 12:19:50;;;;;;;3.65;2.33;;;20.40;41.20;;;;;;5013065;28;20040;-83
2022/04/03 12:22:20;;;;;;;3.05;2.00;;;20.40;41.20;;;;;;5012634;28;20026;-83
2022/04/03 12:24:49;;;;;;;3.30;2.33;;;20.40;41.20;;;;;;4995191;28;20412;-83
2022/04/03 12:27:22;;;;;;;5.20;4.25;;;20.40;41.10;;;;;;5012628;28;20018;-83
2022/04/03 12:29:50;;;;;;;7.32;6.63;;;20.40;41.70;;;;;;5012448;28;20486;-83
2022/04/03 12:32:22;;;;;;;4.38;2.50;;;20.40;41.10;;;;;;4994433;28;20022;-83
2022/04/03 12:34:50;;;;;;;4.25;2.53;;;20.40;41.20;;;;;;5012292;28;20026;-83
2022/04/03 12:37:19;;;;;;;27.50;25.38;;;20.40;41.20;;;;;;5012227;28;20206;-83
2022/04/03 12:39:45;;;;;;;5.95;5.35;;;20.40;41.20;;;;;;5012553;28;20037;-82
2022/04/03 12:42:20;;;;;;;4.20;2.38;;;20.40;41.20;;;;;;4978041;28;20030;-82
2022/04/03 12:44:53;;;;;;;6.97;4.13;;;20.40;41.10;;;;;;5012316;28;20041;-83
2022/04/03 12:47:23;;;;;;;3.53;2.30;;;20.40;41.10;;;;;;5011970;28;20429;-83
2022/04/03 12:50:11;;;;;;;15.82;14.75;;;20.40;41.20;;;;;;5012044;28;20026;-84